createdAt,value
2019-01-31T00:03:46.830Z,0.02
2019-01-31T00:08:46.368Z,-0.06
2019-01-31T00:13:45.797Z,-0.03
2019-01-31T00:18:45.780Z,0.07
2019-01-31T00:23:45.980Z,0.11
2019-01-31T00:28:45.838Z,0.19
2019-01-31T00:33:46.791Z,0.17
2019-01-31T00:38:56.585Z,0.21
2019-01-31T00:43:46.139Z,0.15
2019-01-31T00:48:46.932Z,0.16
2019-01-31T00:53:45.847Z,0.03
2019-01-31T00:58:45.863Z,-0.09
2019-01-31T01:03:45.031Z,-0.17
2019-01-31T01:08:43.861Z,-0.35
2019-01-31T01:13:43.959Z,-0.36
2019-01-31T01:18:43.864Z,-0.19
2019-01-31T01:23:42.854Z,-0.41
2019-01-31T01:28:42.987Z,-0.33
2019-01-31T01:33:41.889Z,-0.29
2019-01-31T01:38:40.900Z,-0.51
2019-01-31T01:43:39.800Z,-0.70
2019-01-31T01:48:40.056Z,-0.69
2019-01-31T01:53:39.900Z,-0.73
2019-01-31T01:58:39.865Z,-0.69
2019-01-31T02:03:39.499Z,-0.71
2019-01-31T02:08:40.137Z,-0.90
2019-01-31T02:13:39.850Z,-0.92
2019-01-31T02:18:40.892Z,-1.20
2019-01-31T02:23:39.890Z,-1.11
2019-01-31T02:28:39.892Z,-1.26
2019-01-31T02:33:39.056Z,-1.37
2019-01-31T02:43:37.873Z,-1.43
2019-01-31T02:48:37.914Z,-1.62
2019-01-31T02:53:37.040Z,-1.67
2019-01-31T02:58:36.909Z,-1.73
2019-01-31T03:03:36.260Z,-1.77
2019-01-31T03:08:35.906Z,-1.87
2019-01-31T03:13:35.979Z,-1.95
2019-01-31T03:18:34.967Z,-1.50
2019-01-31T03:23:34.940Z,-1.24
2019-01-31T03:28:34.043Z,-1.49
2019-01-31T03:33:34.051Z,-1.48
2019-01-31T03:38:33.978Z,-1.66
2019-01-31T03:43:35.136Z,-1.79
2019-01-31T03:48:34.441Z,-1.68
2019-01-31T03:53:35.015Z,-1.96
2019-01-31T03:58:34.969Z,-2.01
2019-01-31T04:03:34.002Z,-2.05
2019-01-31T04:08:33.983Z,-1.97
2019-01-31T04:13:32.983Z,-2.32
2019-01-31T04:18:33.021Z,-2.30
2019-01-31T04:23:32.322Z,-2.30
2019-01-31T04:28:32.204Z,-2.67
2019-01-31T04:33:31.150Z,-2.68
2019-01-31T04:38:31.030Z,-2.60
2019-01-31T04:43:31.041Z,-2.66
2019-01-31T04:48:30.030Z,-2.76
2019-01-31T04:53:30.036Z,-3.06
2019-01-31T04:58:30.044Z,-2.98
2019-01-31T05:03:29.461Z,-2.85
2019-01-31T05:08:30.950Z,-2.87
2019-01-31T05:13:29.151Z,-2.93
2019-01-31T05:18:30.069Z,-3.17
2019-01-31T05:23:30.099Z,-3.13
2019-01-31T05:28:30.082Z,-3.11
2019-01-31T05:33:29.165Z,-3.15
2019-01-31T05:38:30.125Z,-3.23
2019-01-31T05:43:31.141Z,-3.28
2019-01-31T05:48:31.099Z,-3.39
2019-01-31T05:53:31.150Z,-3.36
2019-01-31T05:58:31.186Z,-3.05
2019-01-31T06:03:31.131Z,-3.14
2019-01-31T06:08:30.223Z,-3.33
2019-01-31T06:13:29.116Z,-3.17
2019-01-31T06:18:28.131Z,-3.18
2019-01-31T06:23:28.298Z,-2.94
2019-01-31T06:28:29.179Z,-2.98
2019-01-31T06:33:29.182Z,-2.90
2019-01-31T06:38:28.179Z,-2.64
2019-01-31T06:43:27.162Z,-2.49
2019-01-31T06:48:27.157Z,-2.71
2019-01-31T06:53:26.382Z,-2.67
2019-01-31T06:58:25.725Z,-2.89
2019-01-31T07:03:25.297Z,-2.62
2019-01-31T07:08:25.199Z,-2.62
2019-01-31T07:13:24.297Z,-2.72
2019-01-31T07:18:24.210Z,-2.44
2019-01-31T07:23:24.200Z,-2.69
2019-01-31T07:28:24.232Z,-2.72
2019-01-31T07:33:25.223Z,-2.65
2019-01-31T07:38:24.461Z,-2.57
2019-01-31T07:43:23.600Z,-2.33
2019-01-31T07:48:23.213Z,-2.18
2019-01-31T07:53:22.417Z,-2.06
2019-01-31T07:58:21.532Z,-2.02
2019-01-31T08:08:20.363Z,-1.86
2019-01-31T08:13:19.584Z,-1.90
2019-01-31T08:18:19.551Z,-1.74
2019-01-31T08:23:20.360Z,-1.54
2019-01-31T08:28:19.344Z,-1.50
2019-01-31T08:33:19.044Z,-1.28
2019-01-31T08:38:17.778Z,-1.16
2019-01-31T08:43:20.320Z,-1.03
2019-01-31T08:48:16.791Z,-0.89
2019-01-31T08:53:15.727Z,-0.88
2019-01-31T08:58:14.433Z,-0.80
2019-01-31T09:03:14.382Z,-0.71
2019-01-31T09:08:14.371Z,-0.79
2019-01-31T09:13:13.515Z,-0.74
2019-01-31T09:18:13.410Z,-0.70
2019-01-31T09:23:13.429Z,-0.73
2019-01-31T09:28:13.441Z,-0.72
2019-01-31T09:33:13.421Z,-0.55
2019-01-31T09:38:12.702Z,-0.54
2019-01-31T09:43:13.433Z,-0.35
2019-01-31T09:48:12.421Z,-0.26
2019-01-31T09:53:11.460Z,-0.21
2019-01-31T09:58:11.435Z,-0.31
2019-01-31T10:03:11.546Z,-0.17
2019-01-31T10:08:11.477Z,0.02
2019-01-31T10:13:11.476Z,-0.23
2019-01-31T10:18:11.471Z,-0.16
2019-01-31T10:23:11.522Z,-0.12
2019-01-31T10:28:12.480Z,-0.15
2019-01-31T10:33:11.499Z,-0.02
2019-01-31T10:38:11.452Z,0.12
2019-01-31T10:43:11.478Z,0.07
2019-01-31T10:48:11.517Z,0.30
2019-01-31T10:53:11.592Z,0.12
2019-01-31T10:58:10.681Z,0.32
2019-01-31T11:03:09.550Z,0.23
2019-01-31T11:08:08.496Z,0.27
2019-01-31T11:13:08.520Z,0.10
2019-01-31T11:18:07.778Z,0.15
2019-01-31T11:23:07.493Z,0.32
2019-01-31T11:28:07.525Z,0.39
2019-01-31T11:33:07.504Z,0.40
2019-01-31T11:38:07.495Z,0.63
2019-01-31T11:43:11.955Z,0.29
2019-01-31T11:48:06.083Z,0.50
2019-01-31T11:53:05.571Z,0.51
2019-01-31T11:58:05.539Z,0.52
2019-01-31T12:03:05.519Z,0.26
2019-01-31T12:08:05.664Z,0.53
2019-01-31T12:13:05.540Z,0.73
2019-01-31T12:18:05.672Z,1.10
2019-01-31T12:23:04.803Z,0.58
2019-01-31T12:28:04.501Z,0.55
2019-01-31T12:33:04.589Z,0.78
2019-01-31T12:38:03.997Z,0.78
2019-01-31T12:43:04.572Z,0.91
2019-01-31T12:48:04.574Z,1.20
2019-01-31T12:53:04.547Z,0.81
2019-01-31T12:58:03.846Z,1.12
2019-01-31T13:03:03.601Z,1.02
2019-01-31T13:08:03.726Z,0.82
2019-01-31T13:13:03.618Z,1.15
2019-01-31T13:18:03.615Z,0.81
2019-01-31T13:23:02.587Z,0.93
2019-01-31T13:28:01.739Z,0.86
2019-01-31T13:33:01.680Z,1.12
2019-01-31T13:38:01.617Z,0.71
2019-01-31T13:43:00.683Z,0.93
2019-01-31T13:48:00.689Z,0.69
2019-01-31T13:52:59.914Z,0.55
2019-01-31T13:57:58.614Z,0.79
2019-01-31T14:02:58.656Z,0.79
2019-01-31T14:07:58.600Z,0.81
2019-01-31T14:12:58.598Z,0.67
2019-01-31T14:17:58.629Z,0.89
2019-01-31T14:22:58.677Z,0.69
2019-01-31T14:27:58.640Z,0.68
2019-01-31T14:32:57.657Z,0.64
2019-01-31T14:37:57.741Z,0.49
2019-01-31T14:42:57.662Z,0.44
2019-01-31T14:47:57.714Z,0.53
2019-01-31T14:52:57.689Z,0.44
2019-01-31T14:57:56.737Z,0.41
2019-01-31T15:02:56.707Z,0.37
2019-01-31T15:07:56.651Z,0.36
2019-01-31T15:12:56.632Z,0.33
2019-01-31T15:17:55.691Z,0.36
2019-01-31T15:22:55.826Z,0.35
2019-01-31T15:27:56.673Z,0.29
2019-01-31T15:32:55.842Z,0.25
2019-01-31T15:37:56.910Z,0.18
2019-01-31T15:42:56.051Z,0.18
2019-01-31T15:47:55.749Z,0.18
2019-01-31T15:52:55.665Z,0.17
2019-01-31T15:57:55.730Z,0.11
2019-01-31T16:02:55.713Z,0.10
2019-01-31T16:07:54.769Z,0.07
2019-01-31T16:12:54.756Z,0.03
2019-01-31T16:17:54.718Z,0.03
2019-01-31T16:22:55.700Z,0.05
2019-01-31T16:27:56.796Z,0.06
2019-01-31T16:32:56.801Z,0.02
2019-01-31T16:37:57.817Z,0.01
2019-01-31T16:42:56.729Z,0.02
2019-01-31T16:47:56.754Z,-0.01
2019-01-31T16:52:55.735Z,0.02
2019-01-31T16:57:55.740Z,-0.00
2019-01-31T17:02:55.941Z,-0.01
2019-01-31T17:07:54.710Z,-0.01
2019-01-31T17:12:54.777Z,-0.04
2019-01-31T17:17:54.103Z,-0.03
2019-01-31T17:22:53.310Z,-0.02
2019-01-31T17:27:53.809Z,-0.06
2019-01-31T17:32:52.933Z,-0.13
2019-01-31T17:37:52.097Z,-0.20
2019-01-31T17:42:51.251Z,-0.31
2019-01-31T17:47:50.908Z,-0.36
2019-01-31T17:52:50.881Z,-0.54
2019-01-31T17:57:49.933Z,-0.68
2019-01-31T18:02:50.059Z,-0.71
2019-01-31T18:07:49.872Z,-0.74
2019-01-31T18:12:49.207Z,-0.73
2019-01-31T18:17:48.878Z,-0.52
2019-01-31T18:22:47.926Z,-0.48
2019-01-31T18:27:46.861Z,-0.59
2019-01-31T18:32:46.822Z,-0.91
2019-01-31T18:37:47.123Z,-1.01
2019-01-31T18:42:46.932Z,-1.42
2019-01-31T18:47:45.874Z,-1.78
2019-01-31T18:52:45.030Z,-1.69
2019-01-31T18:57:45.096Z,-2.01
2019-01-31T19:02:44.232Z,-1.95
2019-01-31T19:07:43.829Z,-2.13
2019-01-31T19:12:44.030Z,-2.03
2019-01-31T19:17:43.941Z,-2.16
2019-01-31T19:22:42.940Z,-2.09
2019-01-31T19:27:43.047Z,-2.30
2019-01-31T19:32:41.922Z,-2.36
2019-01-31T19:37:42.274Z,-2.71
2019-01-31T19:47:42.080Z,-2.92
2019-01-31T19:52:41.122Z,-2.57
2019-01-31T19:57:40.890Z,-2.64
2019-01-31T20:02:40.764Z,-2.84
2019-01-31T20:07:39.893Z,-2.87
2019-01-31T20:12:40.033Z,-2.69
2019-01-31T20:17:39.170Z,-3.28
2019-01-31T20:22:38.115Z,-3.27
2019-01-31T20:27:38.280Z,-3.13
2019-01-31T20:32:37.938Z,-3.45
2019-01-31T20:37:36.954Z,-3.29
2019-01-31T20:42:38.061Z,-3.64
2019-01-31T20:47:37.345Z,-3.42
2019-01-31T20:52:37.170Z,-3.56
2019-01-31T20:57:36.380Z,-3.44
2019-01-31T21:02:35.569Z,-3.48
2019-01-31T21:07:35.230Z,-3.72
2019-01-31T21:12:34.993Z,-3.61
2019-01-31T21:17:34.172Z,-3.55
2019-01-31T21:22:34.194Z,-3.81
2019-01-31T21:27:34.108Z,-3.67
2019-01-31T21:32:34.024Z,-3.74
2019-01-31T21:37:34.502Z,-3.92
2019-01-31T21:42:35.000Z,-3.94
2019-01-31T21:47:35.006Z,-3.79
2019-01-31T21:52:35.276Z,-4.06
2019-01-31T21:57:35.033Z,-4.10
2019-01-31T22:02:35.223Z,-4.06
2019-01-31T22:07:35.286Z,-4.25
2019-01-31T22:12:35.257Z,-4.42
2019-01-31T22:17:34.047Z,-4.37
2019-01-31T22:22:34.602Z,-4.45
2019-01-31T22:27:33.250Z,-4.68
2019-01-31T22:32:32.346Z,-4.75
2019-01-31T22:37:33.057Z,-3.90
2019-01-31T22:42:33.122Z,-4.26
2019-01-31T22:47:33.097Z,-4.01
2019-01-31T22:52:34.103Z,-4.03
2019-01-31T22:57:33.237Z,-3.92
2019-01-31T23:02:34.118Z,-3.60
2019-01-31T23:07:34.321Z,-3.07
2019-01-31T23:12:34.307Z,-3.21
2019-01-31T23:17:37.339Z,-3.21
2019-01-31T23:22:33.135Z,-3.14
2019-01-31T23:27:34.142Z,-2.99
2019-01-31T23:32:34.344Z,-2.75
2019-01-31T23:37:34.142Z,-2.67
2019-01-31T23:42:34.191Z,-2.77
2019-01-31T23:47:34.422Z,-2.77
2019-01-31T23:52:34.389Z,-2.48
2019-01-31T23:57:33.140Z,-2.32
